createdAt,value
2018-05-10T00:02:33.553Z,7.50
2018-05-10T00:05:36.060Z,7.40
2018-05-10T00:08:38.491Z,7.87
2018-05-10T00:11:40.961Z,7.70
2018-05-10T00:14:43.437Z,7.17
2018-05-10T00:17:45.956Z,7.60
2018-05-10T00:20:48.525Z,7.63
2018-05-10T00:23:51.095Z,7.77
2018-05-10T00:26:53.541Z,7.27
2018-05-10T00:29:56.110Z,7.97
2018-05-10T00:32:58.617Z,6.63
2018-05-10T00:36:01.269Z,7.10
2018-05-10T00:39:03.725Z,7.40
2018-05-10T00:42:06.257Z,7.20
2018-05-10T00:45:08.701Z,7.00
2018-05-10T00:48:11.207Z,6.30
2018-05-10T00:51:13.651Z,7.50
2018-05-10T00:54:28.156Z,7.20
2018-05-10T00:57:30.737Z,6.80
2018-05-10T01:00:33.203Z,7.40
2018-05-10T01:03:35.756Z,7.50
2018-05-10T01:06:38.217Z,6.93
2018-05-10T01:09:40.686Z,6.30
2018-05-10T01:12:43.161Z,6.90
2018-05-10T01:15:45.717Z,7.10
2018-05-10T01:18:48.231Z,6.70
2018-05-10T01:21:50.725Z,6.80
2018-05-10T01:24:53.277Z,7.60
2018-05-10T01:27:55.749Z,8.80
2018-05-10T01:30:58.201Z,8.17
2018-05-10T01:34:00.776Z,7.33
2018-05-10T01:37:03.334Z,7.40
2018-05-10T01:40:05.860Z,7.60
2018-05-10T01:43:08.282Z,6.97
2018-05-10T01:46:10.923Z,6.43
2018-05-10T01:49:13.386Z,7.23
2018-05-10T01:52:15.947Z,7.33
2018-05-10T01:55:18.422Z,7.50
2018-05-10T01:58:20.876Z,7.60
2018-05-10T02:01:23.352Z,7.90
2018-05-10T02:04:25.892Z,8.13
2018-05-10T02:07:28.477Z,8.60
2018-05-10T02:10:31.014Z,8.40
2018-05-10T02:13:33.469Z,7.10
2018-05-10T02:16:35.919Z,7.57
2018-05-10T02:19:38.403Z,7.80
2018-05-10T02:22:40.959Z,7.40
2018-05-10T02:25:43.542Z,8.30
2018-05-10T02:28:46.086Z,7.40
2018-05-10T02:31:48.508Z,7.97
2018-05-10T02:34:51.007Z,7.80
2018-05-10T02:37:53.575Z,7.37
2018-05-10T02:40:56.067Z,7.67
2018-05-10T02:43:58.589Z,7.33
2018-05-10T02:47:01.078Z,7.50
2018-05-10T02:50:03.617Z,7.37
2018-05-10T02:53:06.177Z,7.80
2018-05-10T02:56:08.604Z,7.60
2018-05-10T02:59:11.078Z,7.77
2018-05-10T03:02:13.563Z,7.50
2018-05-10T03:05:16.119Z,7.30
2018-05-10T03:08:18.643Z,7.87
2018-05-10T03:11:21.129Z,7.47
2018-05-10T03:14:23.652Z,7.43
2018-05-10T03:17:26.149Z,7.30
2018-05-10T03:20:28.624Z,7.30
2018-05-10T03:23:31.187Z,7.57
2018-05-10T03:26:33.609Z,7.33
2018-05-10T03:29:36.084Z,7.23
2018-05-10T03:32:38.572Z,8.30
2018-05-10T03:35:41.014Z,7.37
2018-05-10T03:38:43.619Z,7.73
2018-05-10T03:41:46.113Z,6.93
2018-05-10T03:44:48.598Z,8.23
2018-05-10T03:47:51.020Z,7.47
2018-05-10T03:50:53.499Z,7.70
2018-05-10T03:53:55.944Z,7.57
2018-05-10T03:56:58.415Z,8.37
2018-05-10T04:00:00.960Z,7.43
2018-05-10T04:06:45.839Z,6.80
2018-05-10T04:10:00.265Z,7.20
2018-05-10T04:13:02.764Z,7.33
2018-05-10T04:16:05.259Z,6.80
2018-05-10T04:19:07.725Z,7.80
2018-05-10T04:22:10.195Z,6.83
2018-05-10T04:25:12.796Z,7.00
2018-05-10T04:28:15.265Z,6.47
2018-05-10T04:31:17.784Z,6.60
2018-05-10T04:34:20.259Z,6.73
2018-05-10T04:37:22.701Z,6.80
2018-05-10T04:40:25.167Z,7.30
2018-05-10T04:43:27.736Z,6.20
2018-05-10T04:46:30.129Z,7.20
2018-05-10T04:49:32.589Z,6.77
2018-05-10T04:52:35.147Z,7.13
2018-05-10T04:55:37.610Z,6.43
2018-05-10T04:58:40.066Z,6.40
2018-05-10T05:01:42.628Z,6.70
2018-05-10T05:04:45.103Z,6.53
2018-05-10T05:07:47.570Z,6.80
2018-05-10T05:10:50.041Z,6.10
2018-05-10T05:13:52.479Z,7.20
2018-05-10T05:16:54.962Z,7.03
2018-05-10T05:19:57.422Z,6.83
2018-05-10T05:22:59.884Z,6.70
2018-05-10T05:26:02.339Z,7.30
2018-05-10T05:29:04.876Z,6.40
2018-05-10T05:32:07.334Z,7.23
2018-05-10T05:35:09.900Z,7.10
2018-05-10T05:38:12.339Z,8.53
2018-05-10T05:41:14.915Z,7.70
2018-05-10T05:44:17.390Z,7.43
2018-05-10T05:47:19.946Z,7.93
2018-05-10T05:50:22.454Z,8.40
2018-05-10T05:53:25.044Z,8.20
2018-05-10T05:56:27.540Z,8.50
2018-05-10T05:59:30.009Z,9.50
2018-05-10T06:02:32.487Z,10.83
2018-05-10T06:05:34.994Z,11.10
2018-05-10T06:08:37.553Z,13.33
2018-05-10T06:11:40.141Z,17.10
2018-05-10T06:14:42.703Z,18.53
2018-05-10T06:17:45.282Z,20.33
2018-05-10T06:20:47.721Z,24.73
2018-05-10T06:23:50.236Z,29.10
2018-05-10T06:26:52.682Z,30.13
2018-05-10T06:29:55.172Z,30.73
2018-05-10T06:32:57.627Z,31.40
2018-05-10T06:36:00.092Z,33.97
2018-05-10T06:39:02.591Z,35.37
2018-05-10T06:42:05.189Z,36.60
2018-05-10T06:45:07.657Z,38.50
2018-05-10T06:48:10.198Z,37.97
2018-05-10T06:51:12.744Z,38.50
2018-05-10T06:54:15.216Z,38.30
2018-05-10T06:57:17.712Z,38.83
2018-05-10T07:00:20.177Z,39.93
2018-05-10T07:03:22.831Z,42.97
2018-05-10T07:06:25.312Z,38.43
2018-05-10T07:09:27.914Z,39.43
2018-05-10T07:12:30.298Z,41.87
2018-05-10T07:15:32.866Z,42.73
2018-05-10T07:18:35.351Z,44.83
2018-05-10T07:21:37.852Z,47.60
2018-05-10T07:24:40.421Z,50.17
2018-05-10T07:27:42.932Z,52.80
2018-05-10T07:30:45.416Z,53.87
2018-05-10T07:33:48.008Z,53.00
2018-05-10T07:36:50.473Z,57.13
2018-05-10T07:39:53.037Z,57.53
2018-05-10T07:42:55.489Z,56.63
2018-05-10T07:45:57.983Z,58.10
2018-05-10T07:49:00.467Z,59.00
2018-05-10T07:52:03.053Z,58.50
2018-05-10T07:55:05.531Z,60.97
2018-05-10T07:58:08.004Z,61.10
2018-05-10T08:01:10.489Z,63.83
2018-05-10T08:04:12.993Z,63.77
2018-05-10T08:07:15.473Z,65.20
2018-05-10T08:10:18.045Z,64.07
2018-05-10T08:13:20.533Z,63.47
2018-05-10T08:16:23.081Z,63.70
2018-05-10T08:19:25.580Z,64.17
2018-05-10T08:22:28.083Z,60.97
2018-05-10T08:25:30.562Z,61.73
2018-05-10T08:28:33.064Z,62.97
2018-05-10T08:31:35.530Z,62.87
2018-05-10T08:34:38.037Z,62.03
2018-05-10T08:37:40.588Z,61.27
2018-05-10T08:40:43.041Z,63.20
2018-05-10T08:43:45.617Z,63.20
2018-05-10T08:46:48.088Z,62.90
2018-05-10T08:49:50.593Z,60.73
2018-05-10T08:52:53.118Z,63.17
2018-05-10T08:55:55.588Z,63.07
2018-05-10T08:58:58.087Z,64.47
2018-05-10T09:02:00.593Z,63.47
2018-05-10T09:05:03.331Z,62.80
2018-05-10T09:08:05.848Z,60.87
2018-05-10T09:11:08.317Z,58.50
2018-05-10T09:14:10.933Z,56.90
2018-05-10T09:17:13.423Z,54.40
2018-05-10T09:20:15.948Z,49.23
2018-05-10T09:23:18.527Z,46.60
2018-05-10T09:26:20.981Z,45.80
2018-05-10T09:29:23.484Z,43.90
2018-05-10T09:32:25.952Z,42.70
2018-05-10T09:35:28.422Z,41.50
2018-05-10T09:38:30.907Z,43.40
2018-05-10T09:41:33.373Z,41.97
2018-05-10T09:44:35.880Z,40.43
2018-05-10T09:47:38.412Z,39.70
2018-05-10T09:50:40.940Z,38.73
2018-05-10T09:53:43.540Z,36.40
2018-05-10T09:56:46.014Z,37.07
2018-05-10T09:59:48.604Z,36.47
2018-05-10T10:02:51.073Z,35.30
2018-05-10T10:05:53.648Z,33.17
2018-05-10T10:08:56.115Z,31.10
2018-05-10T10:11:58.645Z,31.67
2018-05-10T10:15:01.172Z,30.17
2018-05-10T10:18:03.669Z,28.57
2018-05-10T10:21:06.110Z,27.13
2018-05-10T10:24:08.658Z,25.20
2018-05-10T10:27:11.232Z,24.00
2018-05-10T10:30:13.751Z,24.53
2018-05-10T10:33:16.234Z,23.30
2018-05-10T10:36:18.715Z,26.27
2018-05-10T10:39:21.188Z,25.10
2018-05-10T10:42:23.663Z,23.30
2018-05-10T10:45:26.281Z,23.33
2018-05-10T10:48:29.260Z,20.40
2018-05-10T10:51:31.805Z,19.47
2018-05-10T10:54:34.368Z,20.13
2018-05-10T10:57:36.835Z,20.37
2018-05-10T11:00:39.350Z,20.17
2018-05-10T11:03:41.819Z,19.90
2018-05-10T11:06:44.310Z,19.70
2018-05-10T11:09:46.803Z,19.60
2018-05-10T11:12:49.318Z,19.20
2018-05-10T11:15:51.774Z,18.63
2018-05-10T11:18:54.245Z,19.33
2018-05-10T11:21:56.795Z,18.50
2018-05-10T11:24:59.348Z,18.10
2018-05-10T11:28:01.814Z,18.40
2018-05-10T11:31:04.390Z,18.40
2018-05-10T11:34:06.889Z,17.60
2018-05-10T11:37:09.390Z,17.33
2018-05-10T11:40:11.882Z,17.63
2018-05-10T11:43:14.470Z,17.23
2018-05-10T11:46:16.945Z,16.30
2018-05-10T11:49:19.480Z,16.70
2018-05-10T11:52:21.950Z,16.00
2018-05-10T11:55:24.433Z,15.43
2018-05-10T11:58:26.903Z,14.97
2018-05-10T12:01:29.349Z,16.57
2018-05-10T12:04:31.820Z,13.97
2018-05-10T12:07:34.310Z,12.20
2018-05-10T12:10:36.924Z,12.60
2018-05-10T12:13:39.444Z,12.60
2018-05-10T12:16:41.899Z,12.50
2018-05-10T12:19:44.395Z,13.27
2018-05-10T12:22:46.914Z,15.00
2018-05-10T12:25:49.403Z,14.80
2018-05-10T12:28:51.894Z,13.17
2018-05-10T12:31:54.364Z,11.97
2018-05-10T12:34:56.921Z,11.73
2018-05-10T12:37:59.463Z,10.90
2018-05-10T12:41:01.994Z,9.60
2018-05-10T12:44:04.459Z,10.63
2018-05-10T12:47:06.969Z,9.90
2018-05-10T12:50:09.400Z,10.47
2018-05-10T12:53:11.979Z,14.00
2018-05-10T12:56:14.622Z,12.97
2018-05-10T12:59:17.065Z,13.57
2018-05-10T13:02:19.639Z,12.37
2018-05-10T13:05:22.102Z,13.70
2018-05-10T13:08:24.751Z,12.33
2018-05-10T13:11:27.162Z,12.20
2018-05-10T13:14:29.711Z,11.53
2018-05-10T13:17:32.256Z,12.23
2018-05-10T13:20:34.798Z,12.07
2018-05-10T13:23:37.302Z,12.27
2018-05-10T13:26:39.780Z,12.47
2018-05-10T13:29:42.299Z,11.43
2018-05-10T13:32:44.752Z,10.50
2018-05-10T13:35:47.375Z,12.37
2018-05-10T13:38:49.911Z,12.37
2018-05-10T13:41:52.357Z,12.80
2018-05-10T13:44:54.839Z,12.63
2018-05-10T13:47:57.398Z,13.23
2018-05-10T13:50:59.876Z,12.53
2018-05-10T13:54:02.391Z,13.00
2018-05-10T13:57:04.886Z,12.20
2018-05-10T14:00:07.408Z,13.77
2018-05-10T14:03:10.003Z,12.87
2018-05-10T14:06:12.568Z,13.00
2018-05-10T14:09:15.027Z,13.47
2018-05-10T14:12:17.525Z,13.63
2018-05-10T14:15:19.995Z,14.10
2018-05-10T14:18:22.516Z,13.10
2018-05-10T14:21:24.986Z,14.40
2018-05-10T14:24:27.450Z,15.27
2018-05-10T14:27:30.102Z,16.40
2018-05-10T14:30:32.670Z,15.20
2018-05-10T14:33:35.168Z,15.30
2018-05-10T14:36:37.625Z,16.10
2018-05-10T14:39:40.152Z,16.37
2018-05-10T14:42:42.609Z,17.33
2018-05-10T14:45:45.126Z,16.50
2018-05-10T14:48:47.582Z,18.30
2018-05-10T14:51:50.106Z,17.57
2018-05-10T14:54:52.583Z,18.73
2018-05-10T14:57:55.182Z,19.07
2018-05-10T15:00:57.672Z,18.80
2018-05-10T15:04:00.244Z,17.40
2018-05-10T15:07:02.736Z,19.30
2018-05-10T15:10:05.259Z,19.57
2018-05-10T15:13:07.723Z,20.10
2018-05-10T15:16:10.309Z,19.20
2018-05-10T15:19:12.821Z,20.97
2018-05-10T15:22:15.315Z,19.03
2018-05-10T15:25:17.859Z,18.63
2018-05-10T15:28:20.462Z,18.43
2018-05-10T15:31:23.003Z,17.43
2018-05-10T15:34:25.581Z,17.33
2018-05-10T15:37:29.363Z,18.50
2018-05-10T15:40:32.012Z,17.63
2018-05-10T15:43:34.533Z,18.10
2018-05-10T15:46:37.076Z,17.40
2018-05-10T15:49:39.579Z,16.97
2018-05-10T15:52:42.095Z,16.07
2018-05-10T15:55:44.601Z,15.17
2018-05-10T15:58:47.099Z,16.17
2018-05-10T16:01:49.999Z,13.37
2018-05-10T16:04:52.523Z,14.53
2018-05-10T16:07:55.047Z,13.80
2018-05-10T16:10:57.543Z,14.20
2018-05-10T16:14:00.125Z,15.27
2018-05-10T16:17:02.608Z,15.07
2018-05-10T16:20:05.238Z,15.17
2018-05-10T16:23:07.985Z,15.90
2018-05-10T16:26:10.452Z,16.67
2018-05-10T16:29:13.014Z,15.13
2018-05-10T16:32:15.527Z,15.90
2018-05-10T16:35:18.143Z,15.80
2018-05-10T16:38:20.688Z,15.73
2018-05-10T16:41:23.193Z,14.40
2018-05-10T16:44:25.747Z,14.30
2018-05-10T16:47:28.323Z,15.30
2018-05-10T16:50:30.841Z,14.90
2018-05-10T16:53:33.389Z,15.07
2018-05-10T16:56:36.083Z,14.50
2018-05-10T16:59:38.613Z,14.40
2018-05-10T17:02:41.203Z,15.57
2018-05-10T17:05:43.739Z,16.23
2018-05-10T17:08:46.206Z,16.27
2018-05-10T17:11:48.712Z,15.60
2018-05-10T17:14:51.230Z,16.67
2018-05-10T17:17:53.813Z,16.77
2018-05-10T17:20:56.322Z,16.07
2018-05-10T17:23:58.838Z,17.30
2018-05-10T17:27:01.407Z,17.40
2018-05-10T17:30:03.884Z,17.40
2018-05-10T17:33:06.434Z,16.10
2018-05-10T17:36:08.913Z,16.57
2018-05-10T17:39:11.374Z,15.43
2018-05-10T17:42:13.829Z,14.20
2018-05-10T17:45:16.334Z,14.37
2018-05-10T17:48:18.868Z,14.10
2018-05-10T17:51:21.353Z,14.30
2018-05-10T17:54:25.184Z,13.83
2018-05-10T17:57:27.694Z,13.33
2018-05-10T18:00:30.227Z,12.63
2018-05-10T18:03:32.879Z,12.60
2018-05-10T18:06:35.412Z,13.33
2018-05-10T18:09:38.001Z,11.70
2018-05-10T18:12:40.565Z,12.97
2018-05-10T18:15:43.090Z,12.20
2018-05-10T18:18:45.687Z,12.10
2018-05-10T18:21:48.125Z,10.50
2018-05-10T18:24:50.712Z,10.70
2018-05-10T18:27:53.243Z,11.40
2018-05-10T18:30:55.733Z,9.67
2018-05-10T18:33:58.194Z,9.80
2018-05-10T18:37:00.705Z,10.07
2018-05-10T18:40:03.179Z,10.40
2018-05-10T18:43:05.769Z,9.53
2018-05-10T18:46:08.265Z,9.83
2018-05-10T18:49:10.785Z,9.40
2018-05-10T18:52:13.299Z,9.03
2018-05-10T18:55:15.815Z,8.87
2018-05-10T18:58:18.396Z,9.40
2018-05-10T19:01:20.903Z,8.93
2018-05-10T19:04:23.515Z,9.00
2018-05-10T19:07:26.046Z,9.40
2018-05-10T19:10:28.580Z,9.07
2018-05-10T19:13:31.120Z,8.63
2018-05-10T19:16:33.650Z,8.60
2018-05-10T19:19:36.121Z,9.03
2018-05-10T19:22:38.695Z,7.83
2018-05-10T19:25:41.299Z,7.93
2018-05-10T19:28:43.770Z,7.53
2018-05-10T19:31:46.324Z,7.40
2018-05-10T19:34:48.896Z,8.00
2018-05-10T19:37:51.504Z,7.80
2018-05-10T19:40:53.967Z,7.83
2018-05-10T19:43:56.473Z,7.67
2018-05-10T19:46:58.938Z,10.07
2018-05-10T19:50:03.852Z,9.50
2018-05-10T19:53:06.461Z,8.97
2018-05-10T19:56:09.018Z,8.53
2018-05-10T19:59:11.540Z,8.80
2018-05-10T20:02:14.023Z,7.90
2018-05-10T20:08:25.392Z,9.00
2018-05-10T20:11:27.878Z,8.90
2018-05-10T20:14:30.375Z,7.90
2018-05-10T20:17:32.900Z,8.97
2018-05-10T20:20:35.428Z,7.70
2018-05-10T20:23:38.045Z,8.10
2018-05-10T20:26:40.587Z,9.13
2018-05-10T20:29:43.149Z,8.60
2018-05-10T20:32:45.636Z,8.60
2018-05-10T20:35:48.109Z,8.67
2018-05-10T20:38:50.581Z,9.63
2018-05-10T20:41:53.200Z,8.80
2018-05-10T20:44:55.696Z,8.60
2018-05-10T20:47:58.205Z,9.00
2018-05-10T20:51:00.652Z,8.90
2018-05-10T20:54:03.180Z,9.90
2018-05-10T20:57:05.706Z,9.60
2018-05-10T21:00:08.206Z,9.97
2018-05-10T21:03:10.723Z,10.07
2018-05-10T21:06:13.289Z,9.87
2018-05-10T21:09:15.796Z,9.40
2018-05-10T21:12:30.089Z,9.40
2018-05-10T21:15:32.626Z,9.70
2018-05-10T21:18:35.105Z,10.13
2018-05-10T21:21:37.626Z,9.63
2018-05-10T21:24:40.230Z,9.17
2018-05-10T21:27:42.686Z,9.83
2018-05-10T21:30:45.181Z,9.20
2018-05-10T21:33:47.738Z,9.57
2018-05-10T21:36:50.222Z,9.70
2018-05-10T21:39:52.747Z,10.53
2018-05-10T21:42:55.231Z,9.50
2018-05-10T21:45:57.863Z,9.77
2018-05-10T21:49:00.353Z,9.60
2018-05-10T21:52:02.940Z,8.90
2018-05-10T21:55:05.446Z,8.77
2018-05-10T21:58:07.930Z,9.20
2018-05-10T22:01:10.446Z,8.50
2018-05-10T22:04:12.930Z,9.37
2018-05-10T22:07:16.430Z,9.97
2018-05-10T22:10:18.961Z,8.60
2018-05-10T22:13:21.660Z,9.53
2018-05-10T22:16:24.121Z,10.00
2018-05-10T22:19:26.618Z,10.60
2018-05-10T22:22:29.156Z,10.40
2018-05-10T22:25:31.620Z,9.13
2018-05-10T22:28:34.136Z,11.50
2018-05-10T22:31:36.616Z,10.00
2018-05-10T22:34:39.091Z,10.70
2018-05-10T22:37:41.542Z,10.77
2018-05-10T22:40:44.028Z,10.53
2018-05-10T22:43:46.543Z,10.90
2018-05-10T22:46:48.981Z,10.93
2018-05-10T22:49:51.571Z,11.40
2018-05-10T22:52:54.036Z,11.07
2018-05-10T22:55:56.621Z,12.00
2018-05-10T22:58:59.099Z,11.43
2018-05-10T23:02:01.630Z,12.20
2018-05-10T23:05:04.140Z,10.90
2018-05-10T23:08:06.650Z,11.77
2018-05-10T23:11:09.211Z,11.27
2018-05-10T23:14:11.771Z,12.87
2018-05-10T23:17:14.283Z,13.37
2018-05-10T23:20:16.795Z,12.20
2018-05-10T23:23:19.315Z,14.50
2018-05-10T23:26:21.921Z,14.87
2018-05-10T23:29:24.580Z,16.50
2018-05-10T23:32:27.072Z,18.83
2018-05-10T23:35:29.618Z,18.50
2018-05-10T23:38:32.035Z,18.87
2018-05-10T23:41:34.522Z,19.63
2018-05-10T23:44:37.101Z,21.33
2018-05-10T23:47:39.661Z,20.57
2018-05-10T23:50:42.141Z,21.03
2018-05-10T23:53:44.682Z,21.47
2018-05-10T23:56:47.172Z,21.37
2018-05-10T23:59:49.617Z,20.43
